Science Garden, Philippines

1:26 PM PHT on July 25, 2014 (GMT +0800)
Taft Avenue, Manila (IMETROMA8) Elev 39 ft | 14.57 °N, 120.99 °E | Change Station

Current weather conditions updated 1 minute ago

Mostly Cloudy
Mostly Cloudy
81.3 °F
Feels Like 89 °F
N
13.0
Wind Variable Wind from West
Gusts 16.0 mph

Today is forecast to be nearly the same temperature as yesterday. Thunderstorms.

Today
High -- | Low -- °F
--% Chance of Precip.
Yesterday
High -- | Low -- °F
Precip. -- in
5:37 AM 6:27 PM
Waning Crescent, 3% visible
Pressure 29.86 in
Visibility 5.0 miles
Clouds Few 2000 ft
Scattered Clouds 3000 ft
Mostly Cloudy 10000 ft
Heat Index 89 °F
Dew Point 77 °F
Humidity 88%
Rainfall 0.01 in
Snow Depth Not available.
UV 2.5 out of 12
Pollen Not available.
Air Quality Not available.
Flu Activity Not available.
METAR RPLC 250500Z 30002KT 8000 FEW020CB SCT030 BKN100 27/24 Q1011 A2986 RMK RERA, HAQ

More Conditions Fewer Conditions

Pressure 29.86 in
Visibility 5.0 miles
Clouds Few 2000 ft
Scattered Clouds 3000 ft
Mostly Cloudy 10000 ft
Heat Index 89 °F
Dew Point 77 °F
Humidity 88%
Rainfall 0.01 in
Snow Depth Not available.
UV 2.5 out of 12
Pollen Not available.
Air Quality Not available.
Flu Activity Not available.
METAR RPLC 250500Z 30002KT 8000 FEW020CB SCT030 BKN100 27/24 Q1011 A2986 RMK RERA, HAQ

More Conditions Fewer Conditions

10-Day Weather Forecast

Almanac

Astronomy

Jul. 25, 2014 Rise Set
Actual Time 5:37 AM PHT 6:27 PM PHT
Civil Twilight 5:14 AM PHT 6:50 PM PHT
Nautical Twilight 4:47 AM PHT 7:17 PM PHT
Astronomical Twilight 4:19 AM PHT 7:44 PM PHT
Moon 4:02 AM PHT 5:05 PM PHT
Length of Visible Light 13h 36m
Length of Day
12h 50m
Tomorrow will be 0m 31s shorter.
Waning Crescent, 3% of the Moon is Illuminated
Today
Waning Crescent
Jul 26
New
Aug 3
First Quarter
Aug 10
Full
Aug 17
Last Quarter

Yesterday's Extremes

Country Highs Country Lows

Community

WunderPhotos

Upload Photos

1,737,245 photos uploaded!

Nearby

Snow Depth

Not available.

Earthquake Activity

City Distance Mag. Time & Date
No recent earthquake activity has been reported nearby.
Minimum magnitude displayed is 2.5.

Coastal Water Temperatures

Place Temperature
No Stations Reporting

Nearby Weather Stations

Station Location Temp. Heat Index Dew Point Humidity Wind Precip. Elev Updated Type
Taft Avenue, Manila, 2401 Taft Avenue 81.3 °F 89 °F 77 °F 88% West  at  13.0 mph 0.00 in / hr 39 ft 1:25 PM PHT Normal
Dasmarinas, Makati 84.0 °F 92 °F 75 °F 75% SW  at  3.8 mph 0.00 in / hr 49 ft 1:25 PM PHT Normal
Pandi Bulacan, San Roque 86.5 °F 91 °F 70 °F 57% SE  at  0.0 mph 0.00 in / hr 102 ft 1:26 PM PHT Rapid Fire
San Lorenzo Road, Pililla 83.7 °F 94 °F 78 °F 82% WSW  at  2.0 mph 0.00 in / hr 60 ft 1:26 PM PHT Rapid Fire

Show More Stations Show Fewer Stations